Seastreak New York — WDA4972 — position and weather

sailwx.info

Track history (hours):
 
Tides and Currents Weather Stations Pressure Air Temp Water Temp Dewpoint Dewpoint Depression Visibility Wind Speed Wind Dir Waves Ship Positions

Seastreak New York

Owner: CIRCLE NAVIGATION, NEW YORK, NY. More information available from US FCC via Universal Licensing System and Coast Guard Vessel Documentation Center.

Last reported at 2017-Nov-19 23:36 UTC. Time now 2017-Nov-20 04:06 UTC.
Position N 40°25' W 073°60'.

; draft 4.7 m.

Type: Passenger vessel. MMSI: 367347130.

Date/timePositionNaut miles runAvg speedWind from/ knotsBaromVisibWave heightAir tempDewpointWater temp
2017-Nov-19 23:36N 40°25' W 073°60'422.7
2017-Nov-19 23:27N 40°28' W 074°01'1331.0
2017-Nov-19 23:01N 40°41' W 074°01'2 4.4
2017-Nov-19 22:31N 40°43' W 073°58'612.7
2017-Nov-19 22:01N 40°37' W 074°03'1315.2
2017-Nov-19 21:09N 40°25' W 073°60'727.1
2017-Nov-19 20:54N 40°31' W 074°02'1127.9
2017-Nov-19 20:30N 40°42' W 074°00'3 5.1
2017-Nov-19 20:00N 40°44' W 073°58'1224.0
2017-Nov-19 19:30N 40°32' W 074°02'815.0
2017-Nov-19 18:59N 40°25' W 073°60'1326.4
2017-Nov-19 18:30N 40°37' W 074°03'817.0
2017-Nov-19 18:00N 40°45' W 073°58'816.4
2017-Nov-19 17:30N 40°37' W 074°03'1325.7
2017-Nov-19 17:00N 40°25' W 073°60'6 9.9
2017-Nov-19 16:22N 40°31' W 074°02'1028.1
2017-Nov-19 16:01N 40°41' W 074°01'2 3.6
2017-Nov-19 15:30N 40°42' W 073°60'612.7
2017-Nov-19 15:00N 40°36' W 074°03'12 1.0
2017-Nov-19 02:33N 40°25' W 073°60'0 1.5
2017-Nov-19 02:23N 40°25' W 074°00'1232.7
2017-Nov-19 02:00N 40°37' W 074°03'816.4
2017-Nov-19 01:30N 40°45' W 073°58'715.4
2017-Nov-19 01:01N 40°38' W 074°03'14 9.7
2017-Nov-18 23:36N 40°25' W 073°60'724.9
2017-Nov-18 23:20N 40°31' W 074°02'928.6
2017-Nov-18 23:01N 40°40' W 074°01'3 6.7
2017-Nov-18 22:31N 40°43' W 073°58'612.7
2017-Nov-18 22:01N 40°37' W 074°03'1325.7
2017-Nov-18 21:30N 40°25' W 073°60'712.7
2017-Nov-18 20:58N 40°31' W 074°02'1124.1
2017-Nov-18 20:30N 40°42' W 074°00'2 4.2
2017-Nov-18 20:00N 40°43' W 073°58'1325.0
2017-Nov-18 19:30N 40°31' W 074°02'713.4
2017-Nov-18 19:00N 40°25' W 073°60'1426.8
2017-Nov-18 18:30N 40°38' W 074°03'715.1
2017-Nov-18 18:00N 40°45' W 073°58'816.9
2017-Nov-18 17:30N 40°37' W 074°03'1325.0
2017-Nov-18 17:00N 40°25' W 073°60'3 5.9
2017-Nov-18 16:28N 40°28' W 074°01'1327.3
2017-Nov-18 16:01N 40°40' W 074°01'3 5.6
2017-Nov-18 15:30N 40°42' W 073°59'612.1
2017-Nov-18 15:00N 40°37' W 074°03'1312.9
2017-Nov-18 14:02N 40°25' W 073°60'0 0.0
2017-Nov-18 01:42N 40°25' W 073°60'0 1.8
2017-Nov-18 01:29N 40°25' W 074°00'1123.0
2017-Nov-18 01:00N 40°36' W 074°03'1019.0
2017-Nov-18 00:30N 40°45' W 073°58'510.5
2017-Nov-18 00:01N 40°40' W 074°01'1527.0
2017-Nov-17 23:26N 40°25' W 073°60'713.0
2017-Nov-17 22:55N 40°31' W 074°02'1127.0
2017-Nov-17 22:30N 40°42' W 074°00'3 5.7
2017-Nov-17 22:00N 40°45' W 073°58'816.2
2017-Nov-17 21:31N 40°37' W 074°03'1223.6
2017-Nov-17 20:59N 40°25' W 074°02'4 7.5
2017-Nov-17 20:27N 40°29' W 074°02'1329.4
2017-Nov-17 20:00N 40°42' W 074°00'3 5.7
2017-Nov-17 19:30N 40°45' W 073°58'0 0.0
2017-Nov-17 19:00N 40°45' W 073°58'0 0.0
2017-Nov-17 18:30N 40°45' W 073°58'0 0.0
2017-Nov-17 18:00N 40°45' W 073°58'0 0.0
2017-Nov-17 17:30N 40°45' W 073°58'0 0.0
2017-Nov-17 17:00N 40°45' W 073°58'0 0.0
2017-Nov-17 16:30N 40°45' W 073°58'0 0.0
2017-Nov-17 16:00N 40°45' W 073°58'0 0.0
2017-Nov-17 15:00N 40°45' W 073°58'4 8.1
2017-Nov-17 14:31N 40°41' W 074°01'8 6.8
2017-Nov-17 13:24N 40°34' W 074°02'1128.4
2017-Nov-17 13:00N 40°45' W 073°58'510.7
2017-Nov-17 12:31N 40°40' W 074°01'1528.2
2017-Nov-17 11:59N 40°25' W 074°02'2 2.8
2017-Nov-17 11:20N 40°25' W 073°60'0 0.1
2017-Nov-17 10:58N 40°25' W 073°60'0 0.0
2017-Nov-17 10:30N 40°25' W 073°60'0 0.0
2017-Nov-17 01:37N 40°25' W 073°60'512.9
2017-Nov-17 01:14N 40°29' W 074°02'734.0
2017-Nov-17 01:01N 40°37' W 074°03'917.1
2017-Nov-17 00:30N 40°45' W 073°58'816.1
2017-Nov-17 00:01N 40°37' W 074°03'1325.6
2017-Nov-16 23:30N 40°25' W 073°60'1014.3
2017-Nov-16 22:49N 40°34' W 074°02'826.2
2017-Nov-16 22:30N 40°42' W 074°00'3 5.7
2017-Nov-16 22:00N 40°45' W 073°58'817.1
2017-Nov-16 21:31N 40°37' W 074°03'1220.9
2017-Nov-16 20:57N 40°25' W 074°02'713.0
2017-Nov-16 20:26N 40°32' W 074°02'1024.7
2017-Nov-16 20:00N 40°42' W 074°00'3 5.8
2017-Nov-16 19:30N 40°45' W 073°58'0 0.0
2017-Nov-16 19:00N 40°45' W 073°58'0 0.0
2017-Nov-16 18:30N 40°45' W 073°58'0 0.0
2017-Nov-16 18:00N 40°45' W 073°58'0 0.0
2017-Nov-16 17:30N 40°45' W 073°58'0 0.0
2017-Nov-16 17:00N 40°45' W 073°58'0 0.0
2017-Nov-16 16:30N 40°45' W 073°58'0 0.0
2017-Nov-16 16:00N 40°45' W 073°58'0 0.0
2017-Nov-16 15:30N 40°45' W 073°58'0 0.0
2017-Nov-16 15:00N 40°45' W 073°58'3 6.7
2017-Nov-16 14:31N 40°42' W 074°00'1631.4
2017-Nov-16 13:59N 40°25' W 074°02'919.0
2017-Nov-16 13:29N 40°35' W 074°03'1021.3
2017-Nov-16 13:00N 40°45' W 073°58'5 9.9
2017-Nov-16 12:31N 40°40' W 074°01'16 1.4
2017-Nov-16 01:30N 40°25' W 074°00'1121.2
2017-Nov-16 01:00N 40°35' W 074°03'1019.5
2017-Nov-16 00:30N 40°45' W 073°58'815.7
2017-Nov-16 00:01N 40°38' W 074°03'1322.1
2017-Nov-15 23:24N 40°25' W 073°60'612.8
2017-Nov-15 22:54N 40°31' W 074°02'1229.0
2017-Nov-15 22:31N 40°42' W 074°00'3 5.8
2017-Nov-15 22:00N 40°45' W 073°58'713.4
2017-Nov-15 21:30N 40°39' W 074°02'1320.2
2017-Nov-15 20:51N 40°25' W 074°01'511.8
2017-Nov-15 20:26N 40°30' W 074°02'1228.4
2017-Nov-15 20:00N 40°42' W 074°00'3 5.9
2017-Nov-15 19:30N 40°45' W 073°58'0 0.0
2017-Nov-15 19:00N 40°45' W 073°58'0 0.0
2017-Nov-15 18:30N 40°45' W 073°58'0 0.0
2017-Nov-15 18:01N 40°45' W 073°58'0 0.0
2017-Nov-15 17:30N 40°45' W 073°58'0 0.0
2017-Nov-15 17:00N 40°45' W 073°58'0 0.0
2017-Nov-15 16:30N 40°45' W 073°58'0 0.0
2017-Nov-15 16:00N 40°45' W 073°58'0 0.0
2017-Nov-15 15:30N 40°45' W 073°58'0 0.0
2017-Nov-15 15:00N 40°45' W 073°58'4 7.2
2017-Nov-15 14:31N 40°42' W 074°01'9 8.7
2017-Nov-15 13:29N 40°33' W 074°02'1225.8
2017-Nov-15 13:00N 40°45' W 073°58'611.6
2017-Nov-15 12:31N 40°39' W 074°02'1418.9
2017-Nov-15 11:46N 40°25' W 074°01'1 2.5
2017-Nov-15 11:14N 40°25' W 073°60'0 0.1
2017-Nov-15 11:00N 40°25' W 073°60'0 0.0
2017-Nov-15 10:30N 40°25' W 073°60'0 0.0
2017-Nov-15 09:59N 40°25' W 073°60'0 0.0
2017-Nov-15 09:30N 40°25' W 073°60'0 0.0
2017-Nov-15 09:00N 40°25' W 073°60'0 0.0
2017-Nov-15 08:30N 40°25' W 073°60'0 0.0
2017-Nov-15 08:00N 40°25' W 073°60'0 0.0
2017-Nov-15 07:29N 40°25' W 073°60'0 0.0
2017-Nov-15 06:59N 40°25' W 073°60'0 0.0
2017-Nov-15 06:30N 40°25' W 073°60'0 0.0
2017-Nov-15 06:00N 40°25' W 073°60'0 0.0
2017-Nov-15 05:30N 40°25' W 073°60'0 0.0
2017-Nov-15 04:59N 40°25' W 073°60'0 0.0
2017-Nov-15 04:30N 40°25' W 073°60'0 0.0
2017-Nov-15 04:00N 40°25' W 073°60'0 0.0
2017-Nov-15 03:30N 40°25' W 073°60'0 0.0
2017-Nov-15 03:00N 40°25' W 073°60'0 0.0
2017-Nov-15 02:30N 40°25' W 073°60'0 0.0
2017-Nov-15 02:00N 40°25' W 073°60'2 3.2
2017-Nov-15 01:24N 40°25' W 074°02'1229.9
2017-Nov-15 01:00N 40°37' W 074°03'816.1
2017-Nov-15 00:30N 40°45' W 073°58'815.4
2017-Nov-15 00:01N 40°38' W 074°03'1321.4
2017-Nov-14 23:23N 40°25' W 073°60'1016.9
2017-Nov-14 22:49N 40°34' W 074°03'827.4
2017-Nov-14 22:30N 40°42' W 074°00'3 5.7
2017-Nov-14 22:00N 40°45' W 073°58'612.9
2017-Nov-14 21:31N 40°39' W 074°02'1419.7
2017-Nov-14 20:48N 40°25' W 074°00'816.7
2017-Nov-14 20:21N 40°32' W 074°02'1028.7
2017-Nov-14 20:00N 40°42' W 074°00'3 5.7
2017-Nov-14 19:30N 40°45' W 073°58'0 0.0
2017-Nov-14 19:00N 40°45' W 073°58'0 0.0
2017-Nov-14 18:30N 40°45' W 073°58'0 0.0
2017-Nov-14 18:00N 40°45' W 073°58'0 0.0
2017-Nov-14 17:30N 40°45' W 073°58'0 0.0
2017-Nov-14 17:00N 40°45' W 073°58'0 0.0
2017-Nov-14 16:30N 40°45' W 073°58'0 0.0
2017-Nov-14 16:00N 40°45' W 073°58'0 0.0
2017-Nov-14 15:30N 40°45' W 073°58'0 0.0
2017-Nov-14 15:00N 40°45' W 073°58'510.6
2017-Nov-14 14:30N 40°40' W 074°01'1528.8
2017-Nov-14 14:00N 40°26' W 074°02'814.6
2017-Nov-14 13:29N 40°33' W 074°02'1224.5
2017-Nov-14 13:00N 40°45' W 073°58'612.4
2017-Nov-14 12:31N 40°39' W 074°02'1418.6
2017-Nov-14 11:44N 40°25' W 074°00'0 1.7
2017-Nov-14 11:29N 40°25' W 073°60'0 0.1
2017-Nov-14 11:00N 40°25' W 073°60'0 0.0
2017-Nov-14 10:30N 40°25' W 073°60'0 0.0
2017-Nov-14 01:46N 40°25' W 073°60'0 1.1
2017-Nov-14 01:30N 40°25' W 074°00'1020.8
2017-Nov-14 01:00N 40°35' W 074°03'1020.7
2017-Nov-14 00:30N 40°45' W 073°58'713.3
2017-Nov-14 00:00N 40°39' W 074°02'1428.2
2017-Nov-13 23:30N 40°25' W 073°60'711.6
2017-Nov-13 22:52N 40°32' W 074°02'1028.7
2017-Nov-13 22:30N 40°42' W 074°00'3 5.7
2017-Nov-13 22:00N 40°45' W 073°58'20 1.0
2017-Nov-13 01:59N 40°25' W 073°60'0 0.0
2017-Nov-13 01:30N 40°25' W 073°60'0 0.0
2017-Nov-13 01:00N 40°25' W 073°60'0 0.0
2017-Nov-13 00:30N 40°25' W 073°60'0 0.0
2017-Nov-13 00:00N 40°25' W 073°60'0 0.0
2017-Nov-12 23:28N 40°25' W 073°60'0 0.0
2017-Nov-12 22:59N 40°25' W 073°60'0 0.0
2017-Nov-12 22:30N 40°25' W 073°60'0 0.0
2017-Nov-12 21:59N 40°25' W 073°60'0 0.0
2017-Nov-12 21:21N 40°25' W 073°60'0 0.0
2017-Nov-12 21:00N 40°25' W 073°60'0 0.0
2017-Nov-12 20:29N 40°25' W 073°60'0 0.0
2017-Nov-12 20:00N 40°25' W 073°60'0 0.0
2017-Nov-12 19:30N 40°25' W 073°60'0 0.0
2017-Nov-12 19:00N 40°25' W 073°60'0 0.0
2017-Nov-12 18:30N 40°25' W 073°60'0 0.0
2017-Nov-12 17:58N 40°25' W 073°60'0 0.0
2017-Nov-12 17:30N 40°25' W 073°60'0 0.0
2017-Nov-12 16:59N 40°25' W 073°60'0 0.1
2017-Nov-12 16:29N 40°25' W 073°60'1532.4
2017-Nov-12 16:01N 40°40' W 074°01'3 5.9
2017-Nov-12 15:30N 40°42' W 073°60'3 6.3
2017-Nov-12 15:00N 40°40' W 074°01'1526.0
2017-Nov-12 14:26N 40°25' W 073°60'0 0.0
2017-Nov-12 13:57N 40°25' W 073°60'0 0.1
2017-Nov-12 13:30N 40°25' W 073°60'0 0.0
2017-Nov-12 13:00N 40°25' W 073°60'0 0.0
2017-Nov-12 12:30N 40°25' W 073°60'0 0.0
2017-Nov-12 10:25N 40°25' W 073°60'0 0.0
2017-Nov-12 09:00N 40°25' W 073°60'0 0.0
2017-Nov-12 08:12N 40°25' W 073°60'0 0.0
2017-Nov-12 07:59N 40°25' W 073°60'0 0.0
2017-Nov-12 07:30N 40°25' W 073°60'0 0.0
2017-Nov-12 06:58N 40°25' W 073°60'0 0.0
2017-Nov-12 06:09N 40°25' W 073°60'0 0.0
2017-Nov-12 05:57N 40°25' W 073°60'0 0.0
2017-Nov-12 00:29N 40°25' W 073°60'0 0.0
2017-Nov-11 23:48N 40°25' W 073°60'0 0.0
2017-Nov-11 23:06N 40°25' W 073°60'0 0.2
2017-Nov-11 22:59N 40°25' W 073°60'1531.6
2017-Nov-11 22:30N 40°39' W 074°02'1019.5
2017-Nov-11 22:00N 40°49' W 073°59'6 0.8
2017-Nov-11 14:41N 40°54' W 073°56'631.0
2017-Nov-11 14:30N 40°49' W 073°58'714.0
2017-Nov-11 14:00N 40°42' W 074°00'816.7
2017-Nov-11 13:30N 40°34' W 074°03'1019.2
2017-Nov-11 13:00N 40°25' W 073°60'0 0.0
2017-Nov-11 11:56N 40°25' W 073°60'0 0.1
2017-Nov-11 11:27N 40°25' W 073°60'0 0.0
2017-Nov-11 10:52N 40°25' W 073°60'0 0.0
2017-Nov-11 10:27N 40°25' W 073°60'0 0.0
2017-Nov-11 09:59N 40°25' W 073°60'0 0.0
2017-Nov-11 09:30N 40°25' W 073°60'0 0.0
2017-Nov-11 09:00N 40°25' W 073°60'0 0.0
2017-Nov-11 08:27N 40°25' W 073°60'0 0.0
2017-Nov-11 06:53N 40°25' W 073°60'0 0.0
2017-Nov-11 06:22N 40°25' W 073°60'0 0.0
2017-Nov-11 05:56N 40°25' W 073°60'0 0.0
2017-Nov-11 05:15N 40°25' W 073°60'0 0.0
2017-Nov-11 05:00N 40°25' W 073°60'0 0.0
2017-Nov-11 04:27N 40°25' W 073°60'0 0.0
2017-Nov-11 03:59N 40°25' W 073°60'0 0.0
2017-Nov-11 03:29N 40°25' W 073°60'0 0.0
2017-Nov-11 02:47N 40°25' W 073°60'0 0.0
2017-Nov-11 02:30N 40°25' W 073°60'0 0.0
2017-Nov-11 01:55N 40°25' W 073°60'2 3.5
2017-Nov-11 01:24N 40°25' W 074°02'1126.9
2017-Nov-11 01:00N 40°36' W 074°02'918.5
2017-Nov-11 00:30N 40°45' W 073°58'1020.6
2017-Nov-11 00:01N 40°35' W 074°02'1020.4
2017-Nov-10 23:30N 40°25' W 073°60'6 9.3
2017-Nov-10 22:53N 40°30' W 074°02'1231.3
2017-Nov-10 22:30N 40°42' W 074°00'3 5.8
2017-Nov-10 22:00N 40°45' W 073°58'919.5
2017-Nov-10 21:30N 40°36' W 074°03'1118.6
2017-Nov-10 20:56N 40°25' W 074°02'914.2
2017-Nov-10 20:19N 40°34' W 074°02'827.1
2017-Nov-10 20:00N 40°42' W 074°00'3 5.9
2017-Nov-10 19:30N 40°45' W 073°58'0 0.0
2017-Nov-10 19:00N 40°45' W 073°58'0 0.0
2017-Nov-10 18:30N 40°45' W 073°58'0 0.0
2017-Nov-10 18:00N 40°45' W 073°58'0 0.0
2017-Nov-10 17:30N 40°45' W 073°58'0 0.0
2017-Nov-10 17:00N 40°45' W 073°58'0 0.0
2017-Nov-10 16:30N 40°45' W 073°58'0 0.0
2017-Nov-10 16:00N 40°45' W 073°58'0 0.0
2017-Nov-10 15:30N 40°45' W 073°58'0 0.0
2017-Nov-10 15:00N 40°45' W 073°58'815.8
2017-Nov-10 14:31N 40°38' W 074°03'1318.3
2017-Nov-10 13:49N 40°25' W 074°02'722.6
2017-Nov-10 13:30N 40°33' W 074°02'1225.1
2017-Nov-10 13:00N 40°45' W 073°58'917.4
2017-Nov-10 12:30N 40°37' W 074°02'1216.6
2017-Nov-10 11:49N 40°25' W 074°01'1 2.2
2017-Nov-10 11:10N 40°25' W 073°60'0 0.0
2017-Nov-10 10:44N 40°25' W 073°60'0 0.0
2017-Nov-10 10:17N 40°25' W 073°60'0 0.0
2017-Nov-10 10:00N 40°25' W 073°60'0 0.0
2017-Nov-10 09:30N 40°25' W 073°60'0 0.0
2017-Nov-10 09:00N 40°25' W 073°60'0 0.0
2017-Nov-10 08:25N 40°25' W 073°60'0 0.0
2017-Nov-10 07:24N 40°25' W 073°60'0 0.0
2017-Nov-10 05:10N 40°25' W 073°60'0 0.0
2017-Nov-10 04:49N 40°25' W 073°60'0 0.0
2017-Nov-10 04:29N 40°25' W 073°60'0 0.0
2017-Nov-10 04:00N 40°25' W 073°60'0 0.0
2017-Nov-10 03:30N 40°25' W 073°60'0 0.0
2017-Nov-10 03:00N 40°25' W 073°60'0 0.0
2017-Nov-10 02:30N 40°25' W 073°60'0 0.0
2017-Nov-10 02:00N 40°25' W 073°60'1 2.7
2017-Nov-10 01:29N 40°25' W 074°01'1021.1
2017-Nov-10 01:00N 40°35' W 074°03'1019.2
2017-Nov-10 00:30N 40°45' W 073°58'714.9
2017-Nov-10 00:01N 40°38' W 074°03'  
Track history (hours):
 
Tides and Currents Weather Stations Pressure Air Temp Water Temp Dewpoint Dewpoint Depression Visibility Wind Speed Wind Dir Waves Ship Positions

Seastreak New York

Owner: CIRCLE NAVIGATION, NEW YORK, NY. More information available from US FCC via Universal Licensing System and Coast Guard Vessel Documentation Center.

Last reported at 2017-Nov-19 23:36 UTC. Time now 2017-Nov-20 04:06 UTC.
Position N 40°25' W 073°60'.

; draft 4.7 m.

Type: Passenger vessel. MMSI: 367347130.

Date/timePositionNaut miles runAvg speedWind from/ knotsBaromVisibWave heightAir tempDewpointWater temp
2017-Nov-19 23:36N 40°25' W 073°60'422.7
2017-Nov-19 23:27N 40°28' W 074°01'1331.0
2017-Nov-19 23:01N 40°41' W 074°01'2 4.4
2017-Nov-19 22:31N 40°43' W 073°58'612.7
2017-Nov-19 22:01N 40°37' W 074°03'1315.2
2017-Nov-19 21:09N 40°25' W 073°60'727.1
2017-Nov-19 20:54N 40°31' W 074°02'1127.9
2017-Nov-19 20:30N 40°42' W 074°00'3 5.1
2017-Nov-19 20:00N 40°44' W 073°58'1224.0
2017-Nov-19 19:30N 40°32' W 074°02'815.0
2017-Nov-19 18:59N 40°25' W 073°60'1326.4
2017-Nov-19 18:30N 40°37' W 074°03'817.0
2017-Nov-19 18:00N 40°45' W 073°58'816.4
2017-Nov-19 17:30N 40°37' W 074°03'1325.7
2017-Nov-19 17:00N 40°25' W 073°60'6 9.9
2017-Nov-19 16:22N 40°31' W 074°02'1028.1
2017-Nov-19 16:01N 40°41' W 074°01'2 3.6
2017-Nov-19 15:30N 40°42' W 073°60'612.7
2017-Nov-19 15:00N 40°36' W 074°03'12 1.0
2017-Nov-19 02:33N 40°25' W 073°60'0 1.5
2017-Nov-19 02:23N 40°25' W 074°00'1232.7
2017-Nov-19 02:00N 40°37' W 074°03'816.4
2017-Nov-19 01:30N 40°45' W 073°58'715.4
2017-Nov-19 01:01N 40°38' W 074°03'14 9.7
2017-Nov-18 23:36N 40°25' W 073°60'724.9
2017-Nov-18 23:20N 40°31' W 074°02'928.6
2017-Nov-18 23:01N 40°40' W 074°01'3 6.7
2017-Nov-18 22:31N 40°43' W 073°58'612.7
2017-Nov-18 22:01N 40°37' W 074°03'1325.7
2017-Nov-18 21:30N 40°25' W 073°60'712.7
2017-Nov-18 20:58N 40°31' W 074°02'1124.1
2017-Nov-18 20:30N 40°42' W 074°00'2 4.2
2017-Nov-18 20:00N 40°43' W 073°58'1325.0
2017-Nov-18 19:30N 40°31' W 074°02'713.4
2017-Nov-18 19:00N 40°25' W 073°60'1426.8
2017-Nov-18 18:30N 40°38' W 074°03'715.1
2017-Nov-18 18:00N 40°45' W 073°58'816.9
2017-Nov-18 17:30N 40°37' W 074°03'1325.0
2017-Nov-18 17:00N 40°25' W 073°60'3 5.9
2017-Nov-18 16:28N 40°28' W 074°01'1327.3
2017-Nov-18 16:01N 40°40' W 074°01'3 5.6
2017-Nov-18 15:30N 40°42' W 073°59'612.1
2017-Nov-18 15:00N 40°37' W 074°03'1312.9
2017-Nov-18 14:02N 40°25' W 073°60'0 0.0
2017-Nov-18 01:42N 40°25' W 073°60'0 1.8
2017-Nov-18 01:29N 40°25' W 074°00'1123.0
2017-Nov-18 01:00N 40°36' W 074°03'1019.0
2017-Nov-18 00:30N 40°45' W 073°58'510.5
2017-Nov-18 00:01N 40°40' W 074°01'1527.0
2017-Nov-17 23:26N 40°25' W 073°60'713.0
2017-Nov-17 22:55N 40°31' W 074°02'1127.0
2017-Nov-17 22:30N 40°42' W 074°00'3 5.7
2017-Nov-17 22:00N 40°45' W 073°58'816.2
2017-Nov-17 21:31N 40°37' W 074°03'1223.6
2017-Nov-17 20:59N 40°25' W 074°02'4 7.5
2017-Nov-17 20:27N 40°29' W 074°02'1329.4
2017-Nov-17 20:00N 40°42' W 074°00'3 5.7
2017-Nov-17 19:30N 40°45' W 073°58'0 0.0
2017-Nov-17 19:00N 40°45' W 073°58'0 0.0
2017-Nov-17 18:30N 40°45' W 073°58'0 0.0
2017-Nov-17 18:00N 40°45' W 073°58'0 0.0
2017-Nov-17 17:30N 40°45' W 073°58'0 0.0
2017-Nov-17 17:00N 40°45' W 073°58'0 0.0
2017-Nov-17 16:30N 40°45' W 073°58'0 0.0
2017-Nov-17 16:00N 40°45' W 073°58'0 0.0
2017-Nov-17 15:00N 40°45' W 073°58'4 8.1
2017-Nov-17 14:31N 40°41' W 074°01'8 6.8
2017-Nov-17 13:24N 40°34' W 074°02'1128.4
2017-Nov-17 13:00N 40°45' W 073°58'510.7
2017-Nov-17 12:31N 40°40' W 074°01'1528.2
2017-Nov-17 11:59N 40°25' W 074°02'2 2.8
2017-Nov-17 11:20N 40°25' W 073°60'0 0.1
2017-Nov-17 10:58N 40°25' W 073°60'0 0.0
2017-Nov-17 10:30N 40°25' W 073°60'0 0.0
2017-Nov-17 01:37N 40°25' W 073°60'512.9
2017-Nov-17 01:14N 40°29' W 074°02'734.0
2017-Nov-17 01:01N 40°37' W 074°03'917.1
2017-Nov-17 00:30N 40°45' W 073°58'816.1
2017-Nov-17 00:01N 40°37' W 074°03'1325.6
2017-Nov-16 23:30N 40°25' W 073°60'1014.3
2017-Nov-16 22:49N 40°34' W 074°02'826.2
2017-Nov-16 22:30N 40°42' W 074°00'3 5.7
2017-Nov-16 22:00N 40°45' W 073°58'817.1
2017-Nov-16 21:31N 40°37' W 074°03'1220.9
2017-Nov-16 20:57N 40°25' W 074°02'713.0
2017-Nov-16 20:26N 40°32' W 074°02'1024.7
2017-Nov-16 20:00N 40°42' W 074°00'3 5.8
2017-Nov-16 19:30N 40°45' W 073°58'0 0.0
2017-Nov-16 19:00N 40°45' W 073°58'0 0.0
2017-Nov-16 18:30N 40°45' W 073°58'0 0.0
2017-Nov-16 18:00N 40°45' W 073°58'0 0.0
2017-Nov-16 17:30N 40°45' W 073°58'0 0.0
2017-Nov-16 17:00N 40°45' W 073°58'0 0.0
2017-Nov-16 16:30N 40°45' W 073°58'0 0.0
2017-Nov-16 16:00N 40°45' W 073°58'0 0.0
2017-Nov-16 15:30N 40°45' W 073°58'0 0.0
2017-Nov-16 15:00N 40°45' W 073°58'3 6.7
2017-Nov-16 14:31N 40°42' W 074°00'1631.4
2017-Nov-16 13:59N 40°25' W 074°02'919.0
2017-Nov-16 13:29N 40°35' W 074°03'1021.3
2017-Nov-16 13:00N 40°45' W 073°58'5 9.9
2017-Nov-16 12:31N 40°40' W 074°01'16 1.4
2017-Nov-16 01:30N 40°25' W 074°00'1121.2
2017-Nov-16 01:00N 40°35' W 074°03'1019.5
2017-Nov-16 00:30N 40°45' W 073°58'815.7
2017-Nov-16 00:01N 40°38' W 074°03'1322.1
2017-Nov-15 23:24N 40°25' W 073°60'612.8
2017-Nov-15 22:54N 40°31' W 074°02'1229.0
2017-Nov-15 22:31N 40°42' W 074°00'3 5.8
2017-Nov-15 22:00N 40°45' W 073°58'713.4
2017-Nov-15 21:30N 40°39' W 074°02'1320.2
2017-Nov-15 20:51N 40°25' W 074°01'511.8
2017-Nov-15 20:26N 40°30' W 074°02'1228.4
2017-Nov-15 20:00N 40°42' W 074°00'3 5.9
2017-Nov-15 19:30N 40°45' W 073°58'0 0.0
2017-Nov-15 19:00N 40°45' W 073°58'0 0.0
2017-Nov-15 18:30N 40°45' W 073°58'0 0.0
2017-Nov-15 18:01N 40°45' W 073°58'0 0.0
2017-Nov-15 17:30N 40°45' W 073°58'0 0.0
2017-Nov-15 17:00N 40°45' W 073°58'0 0.0
2017-Nov-15 16:30N 40°45' W 073°58'0 0.0
2017-Nov-15 16:00N 40°45' W 073°58'0 0.0
2017-Nov-15 15:30N 40°45' W 073°58'0 0.0
2017-Nov-15 15:00N 40°45' W 073°58'4 7.2
2017-Nov-15 14:31N 40°42' W 074°01'9 8.7
2017-Nov-15 13:29N 40°33' W 074°02'1225.8
2017-Nov-15 13:00N 40°45' W 073°58'611.6
2017-Nov-15 12:31N 40°39' W 074°02'1418.9
2017-Nov-15 11:46N 40°25' W 074°01'1 2.5
2017-Nov-15 11:14N 40°25' W 073°60'0 0.1
2017-Nov-15 11:00N 40°25' W 073°60'0 0.0
2017-Nov-15 10:30N 40°25' W 073°60'0 0.0
2017-Nov-15 09:59N 40°25' W 073°60'0 0.0
2017-Nov-15 09:30N 40°25' W 073°60'0 0.0
2017-Nov-15 09:00N 40°25' W 073°60'0 0.0
2017-Nov-15 08:30N 40°25' W 073°60'0 0.0
2017-Nov-15 08:00N 40°25' W 073°60'0 0.0
2017-Nov-15 07:29N 40°25' W 073°60'0 0.0
2017-Nov-15 06:59N 40°25' W 073°60'0 0.0
2017-Nov-15 06:30N 40°25' W 073°60'0 0.0
2017-Nov-15 06:00N 40°25' W 073°60'0 0.0
2017-Nov-15 05:30N 40°25' W 073°60'0 0.0
2017-Nov-15 04:59N 40°25' W 073°60'0 0.0
2017-Nov-15 04:30N 40°25' W 073°60'0 0.0
2017-Nov-15 04:00N 40°25' W 073°60'0 0.0
2017-Nov-15 03:30N 40°25' W 073°60'0 0.0
2017-Nov-15 03:00N 40°25' W 073°60'0 0.0
2017-Nov-15 02:30N 40°25' W 073°60'0 0.0
2017-Nov-15 02:00N 40°25' W 073°60'2 3.2
2017-Nov-15 01:24N 40°25' W 074°02'1229.9
2017-Nov-15 01:00N 40°37' W 074°03'816.1
2017-Nov-15 00:30N 40°45' W 073°58'815.4
2017-Nov-15 00:01N 40°38' W 074°03'1321.4
2017-Nov-14 23:23N 40°25' W 073°60'1016.9
2017-Nov-14 22:49N 40°34' W 074°03'827.4
2017-Nov-14 22:30N 40°42' W 074°00'3 5.7
2017-Nov-14 22:00N 40°45' W 073°58'612.9
2017-Nov-14 21:31N 40°39' W 074°02'1419.7
2017-Nov-14 20:48N 40°25' W 074°00'816.7
2017-Nov-14 20:21N 40°32' W 074°02'1028.7
2017-Nov-14 20:00N 40°42' W 074°00'3 5.7
2017-Nov-14 19:30N 40°45' W 073°58'0 0.0
2017-Nov-14 19:00N 40°45' W 073°58'0 0.0
2017-Nov-14 18:30N 40°45' W 073°58'0 0.0
2017-Nov-14 18:00N 40°45' W 073°58'0 0.0
2017-Nov-14 17:30N 40°45' W 073°58'0 0.0
2017-Nov-14 17:00N 40°45' W 073°58'0 0.0
2017-Nov-14 16:30N 40°45' W 073°58'0 0.0
2017-Nov-14 16:00N 40°45' W 073°58'0 0.0
2017-Nov-14 15:30N 40°45' W 073°58'0 0.0
2017-Nov-14 15:00N 40°45' W 073°58'510.6
2017-Nov-14 14:30N 40°40' W 074°01'1528.8
2017-Nov-14 14:00N 40°26' W 074°02'814.6
2017-Nov-14 13:29N 40°33' W 074°02'1224.5
2017-Nov-14 13:00N 40°45' W 073°58'612.4
2017-Nov-14 12:31N 40°39' W 074°02'1418.6
2017-Nov-14 11:44N 40°25' W 074°00'0 1.7
2017-Nov-14 11:29N 40°25' W 073°60'0 0.1
2017-Nov-14 11:00N 40°25' W 073°60'0 0.0
2017-Nov-14 10:30N 40°25' W 073°60'0 0.0
2017-Nov-14 01:46N 40°25' W 073°60'0 1.1
2017-Nov-14 01:30N 40°25' W 074°00'1020.8
2017-Nov-14 01:00N 40°35' W 074°03'1020.7
2017-Nov-14 00:30N 40°45' W 073°58'713.3
2017-Nov-14 00:00N 40°39' W 074°02'1428.2
2017-Nov-13 23:30N 40°25' W 073°60'711.6
2017-Nov-13 22:52N 40°32' W 074°02'1028.7
2017-Nov-13 22:30N 40°42' W 074°00'3 5.7
2017-Nov-13 22:00N 40°45' W 073°58'20 1.0
2017-Nov-13 01:59N 40°25' W 073°60'0 0.0
2017-Nov-13 01:30N 40°25' W 073°60'0 0.0
2017-Nov-13 01:00N 40°25' W 073°60'0 0.0
2017-Nov-13 00:30N 40°25' W 073°60'0 0.0
2017-Nov-13 00:00N 40°25' W 073°60'0 0.0
2017-Nov-12 23:28N 40°25' W 073°60'0 0.0
2017-Nov-12 22:59N 40°25' W 073°60'0 0.0
2017-Nov-12 22:30N 40°25' W 073°60'0 0.0
2017-Nov-12 21:59N 40°25' W 073°60'0 0.0
2017-Nov-12 21:21N 40°25' W 073°60'0 0.0
2017-Nov-12 21:00N 40°25' W 073°60'0 0.0
2017-Nov-12 20:29N 40°25' W 073°60'0 0.0
2017-Nov-12 20:00N 40°25' W 073°60'0 0.0
2017-Nov-12 19:30N 40°25' W 073°60'0 0.0
2017-Nov-12 19:00N 40°25' W 073°60'0 0.0
2017-Nov-12 18:30N 40°25' W 073°60'0 0.0
2017-Nov-12 17:58N 40°25' W 073°60'0 0.0
2017-Nov-12 17:30N 40°25' W 073°60'0 0.0
2017-Nov-12 16:59N 40°25' W 073°60'0 0.1
2017-Nov-12 16:29N 40°25' W 073°60'1532.4
2017-Nov-12 16:01N 40°40' W 074°01'3 5.9
2017-Nov-12 15:30N 40°42' W 073°60'3 6.3
2017-Nov-12 15:00N 40°40' W 074°01'1526.0
2017-Nov-12 14:26N 40°25' W 073°60'0 0.0
2017-Nov-12 13:57N 40°25' W 073°60'0 0.1
2017-Nov-12 13:30N 40°25' W 073°60'0 0.0
2017-Nov-12 13:00N 40°25' W 073°60'0 0.0
2017-Nov-12 12:30N 40°25' W 073°60'0 0.0
2017-Nov-12 10:25N 40°25' W 073°60'0 0.0
2017-Nov-12 09:00N 40°25' W 073°60'0 0.0
2017-Nov-12 08:12N 40°25' W 073°60'0 0.0
2017-Nov-12 07:59N 40°25' W 073°60'0 0.0
2017-Nov-12 07:30N 40°25' W 073°60'0 0.0
2017-Nov-12 06:58N 40°25' W 073°60'0 0.0
2017-Nov-12 06:09N 40°25' W 073°60'0 0.0
2017-Nov-12 05:57N 40°25' W 073°60'0 0.0
2017-Nov-12 00:29N 40°25' W 073°60'0 0.0
2017-Nov-11 23:48N 40°25' W 073°60'0 0.0
2017-Nov-11 23:06N 40°25' W 073°60'0 0.2
2017-Nov-11 22:59N 40°25' W 073°60'1531.6
2017-Nov-11 22:30N 40°39' W 074°02'1019.5
2017-Nov-11 22:00N 40°49' W 073°59'6 0.8
2017-Nov-11 14:41N 40°54' W 073°56'631.0
2017-Nov-11 14:30N 40°49' W 073°58'714.0
2017-Nov-11 14:00N 40°42' W 074°00'816.7
2017-Nov-11 13:30N 40°34' W 074°03'1019.2
2017-Nov-11 13:00N 40°25' W 073°60'0 0.0
2017-Nov-11 11:56N 40°25' W 073°60'0 0.1
2017-Nov-11 11:27N 40°25' W 073°60'0 0.0
2017-Nov-11 10:52N 40°25' W 073°60'0 0.0
2017-Nov-11 10:27N 40°25' W 073°60'0 0.0
2017-Nov-11 09:59N 40°25' W 073°60'0 0.0
2017-Nov-11 09:30N 40°25' W 073°60'0 0.0
2017-Nov-11 09:00N 40°25' W 073°60'0 0.0
2017-Nov-11 08:27N 40°25' W 073°60'0 0.0
2017-Nov-11 06:53N 40°25' W 073°60'0 0.0
2017-Nov-11 06:22N 40°25' W 073°60'0 0.0
2017-Nov-11 05:56N 40°25' W 073°60'0 0.0
2017-Nov-11 05:15N 40°25' W 073°60'0 0.0
2017-Nov-11 05:00N 40°25' W 073°60'0 0.0
2017-Nov-11 04:27N 40°25' W 073°60'0 0.0
2017-Nov-11 03:59N 40°25' W 073°60'0 0.0
2017-Nov-11 03:29N 40°25' W 073°60'0 0.0
2017-Nov-11 02:47N 40°25' W 073°60'0 0.0
2017-Nov-11 02:30N 40°25' W 073°60'0 0.0
2017-Nov-11 01:55N 40°25' W 073°60'2 3.5
2017-Nov-11 01:24N 40°25' W 074°02'1126.9
2017-Nov-11 01:00N 40°36' W 074°02'918.5
2017-Nov-11 00:30N 40°45' W 073°58'1020.6
2017-Nov-11 00:01N 40°35' W 074°02'1020.4
2017-Nov-10 23:30N 40°25' W 073°60'6 9.3
2017-Nov-10 22:53N 40°30' W 074°02'1231.3
2017-Nov-10 22:30N 40°42' W 074°00'3 5.8
2017-Nov-10 22:00N 40°45' W 073°58'919.5
2017-Nov-10 21:30N 40°36' W 074°03'1118.6
2017-Nov-10 20:56N 40°25' W 074°02'914.2
2017-Nov-10 20:19N 40°34' W 074°02'827.1
2017-Nov-10 20:00N 40°42' W 074°00'3 5.9
2017-Nov-10 19:30N 40°45' W 073°58'0 0.0
2017-Nov-10 19:00N 40°45' W 073°58'0 0.0
2017-Nov-10 18:30N 40°45' W 073°58'0 0.0
2017-Nov-10 18:00N 40°45' W 073°58'0 0.0
2017-Nov-10 17:30N 40°45' W 073°58'0 0.0
2017-Nov-10 17:00N 40°45' W 073°58'0 0.0
2017-Nov-10 16:30N 40°45' W 073°58'0 0.0
2017-Nov-10 16:00N 40°45' W 073°58'0 0.0
2017-Nov-10 15:30N 40°45' W 073°58'0 0.0
2017-Nov-10 15:00N 40°45' W 073°58'815.8
2017-Nov-10 14:31N 40°38' W 074°03'1318.3
2017-Nov-10 13:49N 40°25' W 074°02'722.6
2017-Nov-10 13:30N 40°33' W 074°02'1225.1
2017-Nov-10 13:00N 40°45' W 073°58'917.4
2017-Nov-10 12:30N 40°37' W 074°02'1216.6
2017-Nov-10 11:49N 40°25' W 074°01'1 2.2
2017-Nov-10 11:10N 40°25' W 073°60'0 0.0
2017-Nov-10 10:44N 40°25' W 073°60'0 0.0
2017-Nov-10 10:17N 40°25' W 073°60'0 0.0
2017-Nov-10 10:00N 40°25' W 073°60'0 0.0
2017-Nov-10 09:30N 40°25' W 073°60'0 0.0
2017-Nov-10 09:00N 40°25' W 073°60'0 0.0
2017-Nov-10 08:25N 40°25' W 073°60'0 0.0
2017-Nov-10 07:24N 40°25' W 073°60'0 0.0
2017-Nov-10 05:10N 40°25' W 073°60'0 0.0
2017-Nov-10 04:49N 40°25' W 073°60'0 0.0
2017-Nov-10 04:29N 40°25' W 073°60'0 0.0
2017-Nov-10 04:00N 40°25' W 073°60'0 0.0
2017-Nov-10 03:30N 40°25' W 073°60'0 0.0
2017-Nov-10 03:00N 40°25' W 073°60'0 0.0
2017-Nov-10 02:30N 40°25' W 073°60'0 0.0
2017-Nov-10 02:00N 40°25' W 073°60'1 2.7
2017-Nov-10 01:29N 40°25' W 074°01'1021.1
2017-Nov-10 01:00N 40°35' W 074°03'1019.2
2017-Nov-10 00:30N 40°45' W 073°58'714.9
2017-Nov-10 00:01N 40°38' W 074°03'  

Dump ship's entire track history